Shekhupura, Pakistan
Current Conditions -  °F | °C
As of 2:25 PM on Sunday 26 Oct 2014 (Local Time) from OPLA Reporting Station
Haze Haze  
Wind Chill: 86°   Ceiling: Unl
Heat Index: 87°   Visibility: 2.5mi
Dew Point: 63°   Wind: 5mph
Humidity: 45%   Direction: 330°NNW
Pressure: 29.97"   Gusts: NA
Location:  31.72°N, 73.98°E
Report Text: OPLA 260925Z 33004KT 4000 HZ NSC 30/17 Q1015
Loading
Personal Weather Stations






























Interactive Weather Map
Tropical Storm Tracking
New forecast layout! Learn more

10-Day Weather Forecast

Advertisements
Track Severe Weather on mobile